sensor_id;sensor_type;location;lat;lon;timestamp;P1;durP1;ratioP1;P2;durP2;ratioP2
64875;SDS011;51369;49.862;9.908;2023-02-28T00:00:01;8.27;;;3.97;;
64875;SDS011;51369;49.862;9.908;2023-02-28T00:02:35;6.60;;;4.35;;
64875;SDS011;51369;49.862;9.908;2023-02-28T00:05:01;6.20;;;3.90;;
64875;SDS011;51369;49.862;9.908;2023-02-28T00:07:28;7.15;;;3.97;;
64875;SDS011;51369;49.862;9.908;2023-02-28T00:09:55;5.88;;;4.10;;
64875;SDS011;51369;49.862;9.908;2023-02-28T00:12:20;9.02;;;4.10;;
64875;SDS011;51369;49.862;9.908;2023-02-28T00:14:46;9.00;;;4.22;;
64875;SDS011;51369;49.862;9.908;2023-02-28T00:17:11;4.68;;;3.58;;
64875;SDS011;51369;49.862;9.908;2023-02-28T00:19:36;8.10;;;4.15;;
64875;SDS011;51369;49.862;9.908;2023-02-28T00:22:02;6.75;;;4.50;;
64875;SDS011;51369;49.862;9.908;2023-02-28T00:24:27;6.70;;;4.18;;
64875;SDS011;51369;49.862;9.908;2023-02-28T00:26:52;8.95;;;4.82;;
64875;SDS011;51369;49.862;9.908;2023-02-28T00:29:18;6.00;;;4.45;;
64875;SDS011;51369;49.862;9.908;2023-02-28T00:31:43;6.93;;;4.35;;
64875;SDS011;51369;49.862;9.908;2023-02-28T00:34:10;7.05;;;4.80;;
64875;SDS011;51369;49.862;9.908;2023-02-28T00:36:35;5.80;;;4.60;;
64875;SDS011;51369;49.862;9.908;2023-02-28T00:39:03;8.73;;;4.65;;
64875;SDS011;51369;49.862;9.908;2023-02-28T00:41:28;7.57;;;4.55;;
64875;SDS011;51369;49.862;9.908;2023-02-28T00:43:54;6.22;;;4.00;;
64875;SDS011;51369;49.862;9.908;2023-02-28T00:46:19;7.97;;;4.55;;
64875;SDS011;51369;49.862;9.908;2023-02-28T00:48:44;8.30;;;4.68;;
64875;SDS011;51369;49.862;9.908;2023-02-28T00:51:10;7.13;;;4.32;;
64875;SDS011;51369;49.862;9.908;2023-02-28T00:53:35;6.50;;;4.80;;
64875;SDS011;51369;49.862;9.908;2023-02-28T00:56:01;6.78;;;4.00;;
64875;SDS011;51369;49.862;9.908;2023-02-28T00:58:26;6.03;;;4.10;;
64875;SDS011;51369;49.862;9.908;2023-02-28T01:00:52;5.88;;;3.85;;
64875;SDS011;51369;49.862;9.908;2023-02-28T01:03:19;8.27;;;4.95;;
64875;SDS011;51369;49.862;9.908;2023-02-28T01:05:46;8.63;;;4.95;;
64875;SDS011;51369;49.862;9.908;2023-02-28T01:08:12;7.82;;;4.60;;
64875;SDS011;51369;49.862;9.908;2023-02-28T01:10:38;6.78;;;4.60;;
64875;SDS011;51369;49.862;9.908;2023-02-28T01:13:06;7.40;;;4.80;;
64875;SDS011;51369;49.862;9.908;2023-02-28T01:15:31;5.05;;;3.97;;
64875;SDS011;51369;49.862;9.908;2023-02-28T01:17:57;9.82;;;4.72;;
64875;SDS011;51369;49.862;9.908;2023-02-28T01:20:24;6.28;;;4.38;;
64875;SDS011;51369;49.862;9.908;2023-02-28T01:22:49;8.18;;;4.78;;
64875;SDS011;51369;49.862;9.908;2023-02-28T01:25:15;6.43;;;4.82;;
64875;SDS011;51369;49.862;9.908;2023-02-28T01:27:40;7.43;;;4.82;;
64875;SDS011;51369;49.862;9.908;2023-02-28T01:30:09;6.60;;;4.32;;
64875;SDS011;51369;49.862;9.908;2023-02-28T01:32:35;6.20;;;4.28;;
64875;SDS011;51369;49.862;9.908;2023-02-28T01:35:02;6.35;;;4.70;;
64875;SDS011;51369;49.862;9.908;2023-02-28T01:37:27;9.18;;;4.80;;
64875;SDS011;51369;49.862;9.908;2023-02-28T01:39:53;6.47;;;4.25;;
64875;SDS011;51369;49.862;9.908;2023-02-28T01:42:19;6.07;;;4.07;;
64875;SDS011;51369;49.862;9.908;2023-02-28T01:47:26;7.05;;;4.78;;
64875;SDS011;51369;49.862;9.908;2023-02-28T01:49:55;6.57;;;4.40;;
64875;SDS011;51369;49.862;9.908;2023-02-28T01:52:23;5.93;;;4.22;;
64875;SDS011;51369;49.862;9.908;2023-02-28T01:54:53;6.55;;;4.38;;
64875;SDS011;51369;49.862;9.908;2023-02-28T01:57:23;9.82;;;5.13;;
64875;SDS011;51369;49.862;9.908;2023-02-28T01:59:56;8.85;;;4.35;;
64875;SDS011;51369;49.862;9.908;2023-02-28T02:02:25;9.80;;;5.22;;
64875;SDS011;51369;49.862;9.908;2023-02-28T02:05:00;6.25;;;4.30;;
64875;SDS011;51369;49.862;9.908;2023-02-28T02:07:31;7.65;;;4.70;;
64875;SDS011;51369;49.862;9.908;2023-02-28T02:10:01;7.80;;;5.28;;
64875;SDS011;51369;49.862;9.908;2023-02-28T02:13:05;8.45;;;4.53;;
64875;SDS011;51369;49.862;9.908;2023-02-28T02:18:51;7.40;;;4.75;;
64875;SDS011;51369;49.862;9.908;2023-02-28T02:27:17;7.85;;;4.90;;
64875;SDS011;51369;49.862;9.908;2023-02-28T02:35:10;7.80;;;4.72;;
64875;SDS011;51369;49.862;9.908;2023-02-28T02:37:42;7.22;;;4.55;;
64875;SDS011;51369;49.862;9.908;2023-02-28T02:40:20;7.38;;;4.60;;
64875;SDS011;51369;49.862;9.908;2023-02-28T02:45:28;7.28;;;4.72;;
64875;SDS011;51369;49.862;9.908;2023-02-28T02:48:00;6.50;;;4.78;;
64875;SDS011;51369;49.862;9.908;2023-02-28T02:50:36;7.82;;;5.03;;
64875;SDS011;51369;49.862;9.908;2023-02-28T02:53:07;5.63;;;4.05;;
64875;SDS011;51369;49.862;9.908;2023-02-28T02:55:37;9.13;;;4.90;;
64875;SDS011;51369;49.862;9.908;2023-02-28T02:58:08;7.95;;;4.55;;
64875;SDS011;51369;49.862;9.908;2023-02-28T03:00:39;9.60;;;4.97;;
64875;SDS011;51369;49.862;9.908;2023-02-28T03:03:09;9.15;;;5.30;;
64875;SDS011;51369;49.862;9.908;2023-02-28T03:05:41;14.38;;;5.30;;
64875;SDS011;51369;49.862;9.908;2023-02-28T03:08:11;9.57;;;5.10;;
64875;SDS011;51369;49.862;9.908;2023-02-28T03:10:41;8.13;;;4.80;;
64875;SDS011;51369;49.862;9.908;2023-02-28T03:18:32;7.60;;;4.95;;
64875;SDS011;51369;49.862;9.908;2023-02-28T03:21:14;9.60;;;4.32;;
64875;SDS011;51369;49.862;9.908;2023-02-28T03:23:45;10.15;;;4.35;;
64875;SDS011;51369;49.862;9.908;2023-02-28T03:26:21;8.63;;;5.10;;
64875;SDS011;51369;49.862;9.908;2023-02-28T03:31:39;6.45;;;4.32;;
64875;SDS011;51369;49.862;9.908;2023-02-28T03:36:45;10.23;;;5.03;;
64875;SDS011;51369;49.862;9.908;2023-02-28T03:39:19;6.72;;;4.60;;
64875;SDS011;51369;49.862;9.908;2023-02-28T03:41:53;10.32;;;5.18;;
64875;SDS011;51369;49.862;9.908;2023-02-28T03:45:25;10.02;;;5.53;;
64875;SDS011;51369;49.862;9.908;2023-02-28T03:47:39;8.75;;;5.25;;
64875;SDS011;51369;49.862;9.908;2023-02-28T03:50:55;11.68;;;5.38;;
64875;SDS011;51369;49.862;9.908;2023-02-28T03:53:10;14.02;;;5.20;;
64875;SDS011;51369;49.862;9.908;2023-02-28T03:55:49;8.55;;;4.90;;
64875;SDS011;51369;49.862;9.908;2023-02-28T04:01:04;11.90;;;5.88;;
64875;SDS011;51369;49.862;9.908;2023-02-28T04:03:35;9.57;;;5.43;;
64875;SDS011;51369;49.862;9.908;2023-02-28T04:06:01;9.20;;;5.43;;
64875;SDS011;51369;49.862;9.908;2023-02-28T04:08:27;8.52;;;5.20;;
64875;SDS011;51369;49.862;9.908;2023-02-28T04:11:01;8.10;;;5.45;;
64875;SDS011;51369;49.862;9.908;2023-02-28T04:13:31;8.90;;;4.75;;
64875;SDS011;51369;49.862;9.908;2023-02-28T04:15:57;8.35;;;5.15;;
64875;SDS011;51369;49.862;9.908;2023-02-28T04:18:23;10.80;;;5.35;;
64875;SDS011;51369;49.862;9.908;2023-02-28T04:20:48;7.47;;;4.35;;
64875;SDS011;51369;49.862;9.908;2023-02-28T04:23:14;7.13;;;4.47;;
64875;SDS011;51369;49.862;9.908;2023-02-28T04:25:40;8.32;;;5.22;;
64875;SDS011;51369;49.862;9.908;2023-02-28T04:28:06;8.13;;;4.68;;
64875;SDS011;51369;49.862;9.908;2023-02-28T04:30:31;6.95;;;4.82;;
64875;SDS011;51369;49.862;9.908;2023-02-28T04:32:57;8.55;;;5.00;;
64875;SDS011;51369;49.862;9.908;2023-02-28T04:35:23;8.52;;;5.10;;
64875;SDS011;51369;49.862;9.908;2023-02-28T04:37:49;7.07;;;4.07;;
64875;SDS011;51369;49.862;9.908;2023-02-28T04:40:14;8.93;;;4.72;;
64875;SDS011;51369;49.862;9.908;2023-02-28T04:42:39;10.10;;;4.90;;
64875;SDS011;51369;49.862;9.908;2023-02-28T04:45:05;8.25;;;4.97;;
64875;SDS011;51369;49.862;9.908;2023-02-28T04:47:31;5.78;;;4.07;;
64875;SDS011;51369;49.862;9.908;2023-02-28T04:49:56;8.55;;;5.18;;
64875;SDS011;51369;49.862;9.908;2023-02-28T04:52:21;7.70;;;4.03;;
64875;SDS011;51369;49.862;9.908;2023-02-28T04:54:47;8.65;;;4.63;;
64875;SDS011;51369;49.862;9.908;2023-02-28T04:57:12;9.20;;;4.38;;
64875;SDS011;51369;49.862;9.908;2023-02-28T04:59:38;6.93;;;4.53;;
64875;SDS011;51369;49.862;9.908;2023-02-28T05:02:03;9.38;;;4.38;;
64875;SDS011;51369;49.862;9.908;2023-02-28T05:04:35;12.25;;;4.75;;
64875;SDS011;51369;49.862;9.908;2023-02-28T05:07:01;7.70;;;4.68;;
64875;SDS011;51369;49.862;9.908;2023-02-28T05:09:27;9.40;;;4.57;;
64875;SDS011;51369;49.862;9.908;2023-02-28T05:11:53;8.55;;;4.90;;
64875;SDS011;51369;49.862;9.908;2023-02-28T05:14:18;7.82;;;4.35;;
64875;SDS011;51369;49.862;9.908;2023-02-28T05:16:44;9.77;;;5.05;;
64875;SDS011;51369;49.862;9.908;2023-02-28T05:19:09;6.07;;;4.10;;
64875;SDS011;51369;49.862;9.908;2023-02-28T05:21:36;8.45;;;4.38;;
64875;SDS011;51369;49.862;9.908;2023-02-28T05:24:04;9.85;;;4.72;;
64875;SDS011;51369;49.862;9.908;2023-02-28T05:26:36;8.02;;;4.47;;
64875;SDS011;51369;49.862;9.908;2023-02-28T05:29:04;12.50;;;5.13;;
64875;SDS011;51369;49.862;9.908;2023-02-28T05:31:30;7.80;;;4.43;;
64875;SDS011;51369;49.862;9.908;2023-02-28T05:33:56;6.32;;;4.15;;
64875;SDS011;51369;49.862;9.908;2023-02-28T05:36:21;7.47;;;4.00;;
64875;SDS011;51369;49.862;9.908;2023-02-28T05:38:47;10.25;;;4.80;;
64875;SDS011;51369;49.862;9.908;2023-02-28T05:41:14;6.60;;;4.32;;
64875;SDS011;51369;49.862;9.908;2023-02-28T05:43:40;7.15;;;4.25;;
64875;SDS011;51369;49.862;9.908;2023-02-28T05:46:06;6.50;;;4.18;;
64875;SDS011;51369;49.862;9.908;2023-02-28T05:48:33;6.93;;;3.97;;
64875;SDS011;51369;49.862;9.908;2023-02-28T05:51:00;5.63;;;3.80;;
64875;SDS011;51369;49.862;9.908;2023-02-28T05:53:26;10.63;;;4.20;;
64875;SDS011;51369;49.862;9.908;2023-02-28T05:55:51;6.18;;;3.65;;
64875;SDS011;51369;49.862;9.908;2023-02-28T05:58:17;6.82;;;4.35;;
64875;SDS011;51369;49.862;9.908;2023-02-28T06:00:42;6.55;;;3.53;;
64875;SDS011;51369;49.862;9.908;2023-02-28T06:03:08;6.45;;;4.25;;
64875;SDS011;51369;49.862;9.908;2023-02-28T06:05:33;5.88;;;3.53;;
64875;SDS011;51369;49.862;9.908;2023-02-28T06:07:58;6.18;;;4.38;;
64875;SDS011;51369;49.862;9.908;2023-02-28T06:10:24;5.65;;;3.72;;
64875;SDS011;51369;49.862;9.908;2023-02-28T06:12:49;5.32;;;3.67;;
64875;SDS011;51369;49.862;9.908;2023-02-28T06:15:15;8.10;;;4.28;;
64875;SDS011;51369;49.862;9.908;2023-02-28T06:17:42;8.05;;;4.25;;
64875;SDS011;51369;49.862;9.908;2023-02-28T06:20:08;5.72;;;3.78;;
64875;SDS011;51369;49.862;9.908;2023-02-28T06:22:36;6.82;;;3.47;;
64875;SDS011;51369;49.862;9.908;2023-02-28T06:25:02;11.63;;;4.60;;
64875;SDS011;51369;49.862;9.908;2023-02-28T06:27:30;7.22;;;4.05;;
64875;SDS011;51369;49.862;9.908;2023-02-28T06:29:56;6.55;;;4.05;;
64875;SDS011;51369;49.862;9.908;2023-02-28T06:32:21;9.63;;;4.15;;
64875;SDS011;51369;49.862;9.908;2023-02-28T06:34:47;6.70;;;3.92;;
64875;SDS011;51369;49.862;9.908;2023-02-28T06:37:12;9.18;;;4.13;;
64875;SDS011;51369;49.862;9.908;2023-02-28T06:39:38;5.63;;;3.72;;
64875;SDS011;51369;49.862;9.908;2023-02-28T06:42:03;8.00;;;4.45;;
64875;SDS011;51369;49.862;9.908;2023-02-28T06:44:28;5.50;;;3.63;;
64875;SDS011;51369;49.862;9.908;2023-02-28T06:47:04;6.47;;;3.60;;
64875;SDS011;51369;49.862;9.908;2023-02-28T06:49:31;5.70;;;3.60;;
64875;SDS011;51369;49.862;9.908;2023-02-28T06:51:57;5.28;;;3.75;;
64875;SDS011;51369;49.862;9.908;2023-02-28T06:54:23;5.93;;;3.90;;
64875;SDS011;51369;49.862;9.908;2023-02-28T06:56:48;7.57;;;4.35;;
64875;SDS011;51369;49.862;9.908;2023-02-28T06:59:14;9.88;;;4.70;;
64875;SDS011;51369;49.862;9.908;2023-02-28T07:01:39;9.13;;;4.47;;
64875;SDS011;51369;49.862;9.908;2023-02-28T07:04:05;9.43;;;4.28;;
64875;SDS011;51369;49.862;9.908;2023-02-28T07:06:31;6.25;;;4.10;;
64875;SDS011;51369;49.862;9.908;2023-02-28T07:08:56;8.20;;;4.30;;
64875;SDS011;51369;49.862;9.908;2023-02-28T07:11:23;6.68;;;4.45;;
64875;SDS011;51369;49.862;9.908;2023-02-28T07:13:51;9.85;;;4.88;;
64875;SDS011;51369;49.862;9.908;2023-02-28T07:16:20;6.13;;;4.10;;
64875;SDS011;51369;49.862;9.908;2023-02-28T07:18:46;10.25;;;4.55;;
64875;SDS011;51369;49.862;9.908;2023-02-28T07:21:12;7.45;;;4.55;;
64875;SDS011;51369;49.862;9.908;2023-02-28T07:23:38;9.13;;;5.28;;
64875;SDS011;51369;49.862;9.908;2023-02-28T07:26:10;9.57;;;4.63;;
64875;SDS011;51369;49.862;9.908;2023-02-28T07:28:39;6.60;;;4.20;;
64875;SDS011;51369;49.862;9.908;2023-02-28T07:31:05;8.75;;;4.57;;
64875;SDS011;51369;49.862;9.908;2023-02-28T07:33:32;9.23;;;4.75;;
64875;SDS011;51369;49.862;9.908;2023-02-28T07:36:09;11.50;;;5.43;;
64875;SDS011;51369;49.862;9.908;2023-02-28T07:38:40;7.63;;;4.80;;
64875;SDS011;51369;49.862;9.908;2023-02-28T07:41:07;10.57;;;5.18;;
64875;SDS011;51369;49.862;9.908;2023-02-28T07:43:33;10.07;;;4.60;;
64875;SDS011;51369;49.862;9.908;2023-02-28T07:46:09;11.90;;;5.40;;
64875;SDS011;51369;49.862;9.908;2023-02-28T07:48:36;11.15;;;4.97;;
64875;SDS011;51369;49.862;9.908;2023-02-28T07:51:02;15.48;;;5.78;;
64875;SDS011;51369;49.862;9.908;2023-02-28T07:53:28;10.27;;;5.90;;
64875;SDS011;51369;49.862;9.908;2023-02-28T07:55:54;14.30;;;5.40;;
64875;SDS011;51369;49.862;9.908;2023-02-28T07:58:21;11.48;;;5.80;;
64875;SDS011;51369;49.862;9.908;2023-02-28T08:00:47;16.67;;;6.03;;
64875;SDS011;51369;49.862;9.908;2023-02-28T08:03:12;14.52;;;6.63;;
64875;SDS011;51369;49.862;9.908;2023-02-28T08:05:39;10.98;;;6.13;;
64875;SDS011;51369;49.862;9.908;2023-02-28T08:08:05;15.35;;;6.35;;
64875;SDS011;51369;49.862;9.908;2023-02-28T08:10:31;11.48;;;6.70;;
64875;SDS011;51369;49.862;9.908;2023-02-28T08:12:57;13.52;;;6.85;;
64875;SDS011;51369;49.862;9.908;2023-02-28T08:15:22;12.10;;;6.72;;
64875;SDS011;51369;49.862;9.908;2023-02-28T08:17:47;13.75;;;6.97;;
64875;SDS011;51369;49.862;9.908;2023-02-28T08:20:13;14.77;;;7.13;;
64875;SDS011;51369;49.862;9.908;2023-02-28T08:22:38;11.38;;;6.85;;
64875;SDS011;51369;49.862;9.908;2023-02-28T08:25:04;11.55;;;5.82;;
64875;SDS011;51369;49.862;9.908;2023-02-28T08:27:32;12.75;;;7.15;;
64875;SDS011;51369;49.862;9.908;2023-02-28T08:29:57;13.73;;;7.75;;
64875;SDS011;51369;49.862;9.908;2023-02-28T08:32:22;13.07;;;7.03;;
64875;SDS011;51369;49.862;9.908;2023-02-28T08:34:48;13.65;;;8.43;;
64875;SDS011;51369;49.862;9.908;2023-02-28T08:37:14;16.13;;;8.13;;
64875;SDS011;51369;49.862;9.908;2023-02-28T08:39:39;16.55;;;7.22;;
64875;SDS011;51369;49.862;9.908;2023-02-28T08:42:05;16.70;;;7.90;;
64875;SDS011;51369;49.862;9.908;2023-02-28T08:44:30;11.13;;;7.22;;
64875;SDS011;51369;49.862;9.908;2023-02-28T08:46:55;15.45;;;7.47;;
64875;SDS011;51369;49.862;9.908;2023-02-28T08:49:21;13.02;;;7.10;;
64875;SDS011;51369;49.862;9.908;2023-02-28T08:51:46;14.90;;;8.32;;
64875;SDS011;51369;49.862;9.908;2023-02-28T08:54:12;14.00;;;7.75;;
64875;SDS011;51369;49.862;9.908;2023-02-28T08:56:38;14.10;;;7.90;;
64875;SDS011;51369;49.862;9.908;2023-02-28T08:59:03;25.88;;;8.75;;
64875;SDS011;51369;49.862;9.908;2023-02-28T09:01:29;13.20;;;7.80;;
64875;SDS011;51369;49.862;9.908;2023-02-28T09:03:56;15.05;;;7.80;;
64875;SDS011;51369;49.862;9.908;2023-02-28T09:06:23;16.95;;;8.13;;
64875;SDS011;51369;49.862;9.908;2023-02-28T09:08:50;15.30;;;8.13;;
64875;SDS011;51369;49.862;9.908;2023-02-28T09:11:16;16.00;;;8.70;;
64875;SDS011;51369;49.862;9.908;2023-02-28T09:13:43;14.65;;;7.75;;
64875;SDS011;51369;49.862;9.908;2023-02-28T09:16:11;13.90;;;8.15;;
64875;SDS011;51369;49.862;9.908;2023-02-28T09:18:38;16.23;;;8.85;;
64875;SDS011;51369;49.862;9.908;2023-02-28T09:21:08;15.10;;;8.30;;
64875;SDS011;51369;49.862;9.908;2023-02-28T09:23:44;11.20;;;7.18;;
64875;SDS011;51369;49.862;9.908;2023-02-28T09:26:18;13.15;;;7.78;;
64875;SDS011;51369;49.862;9.908;2023-02-28T09:28:49;12.68;;;7.55;;
64875;SDS011;51369;49.862;9.908;2023-02-28T09:31:16;13.80;;;7.85;;
64875;SDS011;51369;49.862;9.908;2023-02-28T09:33:45;15.82;;;8.13;;
64875;SDS011;51369;49.862;9.908;2023-02-28T09:36:12;15.38;;;8.40;;
64875;SDS011;51369;49.862;9.908;2023-02-28T09:38:37;13.10;;;7.03;;
64875;SDS011;51369;49.862;9.908;2023-02-28T09:41:08;10.82;;;7.22;;
64875;SDS011;51369;49.862;9.908;2023-02-28T09:43:38;13.18;;;8.27;;
64875;SDS011;51369;49.862;9.908;2023-02-28T09:53:47;12.65;;;7.28;;
64875;SDS011;51369;49.862;9.908;2023-02-28T10:05:24;12.32;;;7.45;;
64875;SDS011;51369;49.862;9.908;2023-02-28T10:10:42;11.73;;;7.10;;
64875;SDS011;51369;49.862;9.908;2023-02-28T10:13:22;12.40;;;7.82;;
64875;SDS011;51369;49.862;9.908;2023-02-28T10:15:51;14.85;;;7.65;;
64875;SDS011;51369;49.862;9.908;2023-02-28T10:18:21;12.63;;;7.78;;
64875;SDS011;51369;49.862;9.908;2023-02-28T10:20:51;13.23;;;7.90;;
64875;SDS011;51369;49.862;9.908;2023-02-28T10:23:23;14.05;;;8.18;;
64875;SDS011;51369;49.862;9.908;2023-02-28T10:26:13;14.60;;;7.55;;
64875;SDS011;51369;49.862;9.908;2023-02-28T10:28:41;13.02;;;7.72;;
64875;SDS011;51369;49.862;9.908;2023-02-28T10:31:08;13.07;;;8.25;;
64875;SDS011;51369;49.862;9.908;2023-02-28T10:33:39;11.20;;;6.95;;
64875;SDS011;51369;49.862;9.908;2023-02-28T10:36:04;11.57;;;7.43;;
64875;SDS011;51369;49.862;9.908;2023-02-28T10:41:08;14.60;;;7.95;;
64875;SDS011;51369;49.862;9.908;2023-02-28T10:43:34;14.45;;;7.80;;
64875;SDS011;51369;49.862;9.908;2023-02-28T10:51:04;14.65;;;7.20;;
64875;SDS011;51369;49.862;9.908;2023-02-28T10:53:50;13.25;;;7.80;;
64875;SDS011;51369;49.862;9.908;2023-02-28T10:56:18;10.68;;;7.47;;
64875;SDS011;51369;49.862;9.908;2023-02-28T11:01:39;11.52;;;7.60;;
64875;SDS011;51369;49.862;9.908;2023-02-28T11:04:20;18.15;;;8.43;;
64875;SDS011;51369;49.862;9.908;2023-02-28T11:06:58;12.75;;;7.45;;
64875;SDS011;51369;49.862;9.908;2023-02-28T11:09:30;12.40;;;7.40;;
64875;SDS011;51369;49.862;9.908;2023-02-28T11:12:00;14.00;;;7.47;;
64875;SDS011;51369;49.862;9.908;2023-02-28T11:14:28;12.20;;;8.02;;
64875;SDS011;51369;49.862;9.908;2023-02-28T11:16:56;14.88;;;8.95;;
64875;SDS011;51369;49.862;9.908;2023-02-28T11:19:28;14.38;;;7.88;;
64875;SDS011;51369;49.862;9.908;2023-02-28T11:22:05;13.65;;;7.60;;
64875;SDS011;51369;49.862;9.908;2023-02-28T11:24:42;14.80;;;7.93;;
64875;SDS011;51369;49.862;9.908;2023-02-28T11:27:45;14.45;;;8.13;;
64875;SDS011;51369;49.862;9.908;2023-02-28T11:32:50;12.57;;;7.03;;
64875;SDS011;51369;49.862;9.908;2023-02-28T11:35:34;18.20;;;7.97;;
64875;SDS011;51369;49.862;9.908;2023-02-28T11:38:04;15.18;;;7.30;;
64875;SDS011;51369;49.862;9.908;2023-02-28T11:46:35;12.30;;;7.57;;
64875;SDS011;51369;49.862;9.908;2023-02-28T11:54:58;14.23;;;8.20;;
64875;SDS011;51369;49.862;9.908;2023-02-28T11:57:44;13.30;;;7.47;;
64875;SDS011;51369;49.862;9.908;2023-02-28T12:03:09;14.82;;;7.68;;
64875;SDS011;51369;49.862;9.908;2023-02-28T12:08:23;12.15;;;7.88;;
64875;SDS011;51369;49.862;9.908;2023-02-28T12:13:23;13.15;;;8.00;;
64875;SDS011;51369;49.862;9.908;2023-02-28T12:16:00;10.95;;;6.68;;
64875;SDS011;51369;49.862;9.908;2023-02-28T12:29:19;16.45;;;8.43;;
64875;SDS011;51369;49.862;9.908;2023-02-28T12:32:07;17.17;;;8.60;;
64875;SDS011;51369;49.862;9.908;2023-02-28T12:34:39;11.35;;;7.65;;
64875;SDS011;51369;49.862;9.908;2023-02-28T12:37:20;15.98;;;9.43;;
64875;SDS011;51369;49.862;9.908;2023-02-28T12:39:54;11.43;;;7.68;;
64875;SDS011;51369;49.862;9.908;2023-02-28T12:42:30;18.42;;;7.97;;
64875;SDS011;51369;49.862;9.908;2023-02-28T12:45:08;13.25;;;8.25;;
64875;SDS011;51369;49.862;9.908;2023-02-28T12:47:40;11.95;;;7.30;;
64875;SDS011;51369;49.862;9.908;2023-02-28T12:50:10;12.98;;;8.65;;
64875;SDS011;51369;49.862;9.908;2023-02-28T12:58:45;11.88;;;8.18;;
64875;SDS011;51369;49.862;9.908;2023-02-28T13:09:23;14.57;;;8.13;;
64875;SDS011;51369;49.862;9.908;2023-02-28T13:11:50;13.23;;;8.30;;
64875;SDS011;51369;49.862;9.908;2023-02-28T13:16:59;12.30;;;7.32;;
64875;SDS011;51369;49.862;9.908;2023-02-28T13:19:30;13.48;;;8.18;;
64875;SDS011;51369;49.862;9.908;2023-02-28T13:21:58;11.23;;;8.35;;
64875;SDS011;51369;49.862;9.908;2023-02-28T13:29:31;13.02;;;8.15;;
64875;SDS011;51369;49.862;9.908;2023-02-28T13:34:38;20.73;;;9.07;;
64875;SDS011;51369;49.862;9.908;2023-02-28T13:42:22;12.85;;;7.00;;
64875;SDS011;51369;49.862;9.908;2023-02-28T13:47:36;12.45;;;8.32;;
64875;SDS011;51369;49.862;9.908;2023-02-28T13:50:15;17.40;;;8.52;;
64875;SDS011;51369;49.862;9.908;2023-02-28T14:06:35;13.85;;;8.68;;
64875;SDS011;51369;49.862;9.908;2023-02-28T14:09:16;15.15;;;9.10;;
64875;SDS011;51369;49.862;9.908;2023-02-28T14:11:43;13.60;;;7.97;;
64875;SDS011;51369;49.862;9.908;2023-02-28T14:17:05;15.38;;;8.27;;
64875;SDS011;51369;49.862;9.908;2023-02-28T14:19:37;10.73;;;8.23;;
64875;SDS011;51369;49.862;9.908;2023-02-28T14:25:08;21.55;;;8.32;;
64875;SDS011;51369;49.862;9.908;2023-02-28T14:30:12;13.63;;;8.85;;
64875;SDS011;51369;49.862;9.908;2023-02-28T14:32:41;13.52;;;8.00;;
64875;SDS011;51369;49.862;9.908;2023-02-28T14:35:35;13.90;;;8.23;;
64875;SDS011;51369;49.862;9.908;2023-02-28T14:38:40;13.15;;;7.93;;
64875;SDS011;51369;49.862;9.908;2023-02-28T14:41:31;14.50;;;8.45;;
64875;SDS011;51369;49.862;9.908;2023-02-28T14:44:18;14.38;;;8.00;;
64875;SDS011;51369;49.862;9.908;2023-02-28T14:46:53;14.30;;;8.23;;
64875;SDS011;51369;49.862;9.908;2023-02-28T14:49:26;14.32;;;8.32;;
64875;SDS011;51369;49.862;9.908;2023-02-28T14:52:03;12.25;;;8.13;;
64875;SDS011;51369;49.862;9.908;2023-02-28T14:54:30;15.77;;;9.00;;
64875;SDS011;51369;49.862;9.908;2023-02-28T14:56:57;19.92;;;8.88;;
64875;SDS011;51369;49.862;9.908;2023-02-28T14:59:23;13.45;;;8.50;;
64875;SDS011;51369;49.862;9.908;2023-02-28T15:02:17;11.93;;;7.97;;
64875;SDS011;51369;49.862;9.908;2023-02-28T15:04:58;13.32;;;8.38;;
64875;SDS011;51369;49.862;9.908;2023-02-28T15:07:25;13.73;;;8.05;;
64875;SDS011;51369;49.862;9.908;2023-02-28T15:10:07;15.05;;;9.02;;
64875;SDS011;51369;49.862;9.908;2023-02-28T15:12:35;15.52;;;8.70;;
64875;SDS011;51369;49.862;9.908;2023-02-28T15:15:02;15.52;;;8.60;;
64875;SDS011;51369;49.862;9.908;2023-02-28T15:17:28;14.90;;;8.88;;
64875;SDS011;51369;49.862;9.908;2023-02-28T15:19:54;15.10;;;8.88;;
64875;SDS011;51369;49.862;9.908;2023-02-28T15:22:32;15.52;;;9.10;;
64875;SDS011;51369;49.862;9.908;2023-02-28T15:27:31;11.48;;;7.90;;
64875;SDS011;51369;49.862;9.908;2023-02-28T15:29:59;17.02;;;8.68;;
64875;SDS011;51369;49.862;9.908;2023-02-28T15:34:57;10.30;;;7.05;;
64875;SDS011;51369;49.862;9.908;2023-02-28T15:42:57;11.73;;;7.70;;
64875;SDS011;51369;49.862;9.908;2023-02-28T15:50:52;12.30;;;8.05;;
64875;SDS011;51369;49.862;9.908;2023-02-28T15:53:21;12.13;;;7.28;;
64875;SDS011;51369;49.862;9.908;2023-02-28T15:58:58;22.35;;;7.47;;
64875;SDS011;51369;49.862;9.908;2023-02-28T16:01:27;15.85;;;7.60;;
64875;SDS011;51369;49.862;9.908;2023-02-28T16:03:56;24.52;;;7.75;;
64875;SDS011;51369;49.862;9.908;2023-02-28T16:06:32;14.20;;;7.35;;
64875;SDS011;51369;49.862;9.908;2023-02-28T16:08:58;13.75;;;7.28;;
64875;SDS011;51369;49.862;9.908;2023-02-28T16:11:24;12.02;;;7.70;;
64875;SDS011;51369;49.862;9.908;2023-02-28T16:13:49;13.45;;;7.35;;
64875;SDS011;51369;49.862;9.908;2023-02-28T16:16:21;17.23;;;7.25;;
64875;SDS011;51369;49.862;9.908;2023-02-28T16:18:49;47.70;;;9.20;;
64875;SDS011;51369;49.862;9.908;2023-02-28T16:21:15;12.43;;;7.60;;
64875;SDS011;51369;49.862;9.908;2023-02-28T16:23:40;14.13;;;7.35;;
64875;SDS011;51369;49.862;9.908;2023-02-28T16:26:06;17.45;;;7.72;;
64875;SDS011;51369;49.862;9.908;2023-02-28T16:28:34;12.77;;;8.00;;
64875;SDS011;51369;49.862;9.908;2023-02-28T16:31:02;13.30;;;7.97;;
64875;SDS011;51369;49.862;9.908;2023-02-28T16:33:30;17.00;;;8.55;;
64875;SDS011;51369;49.862;9.908;2023-02-28T16:35:57;20.85;;;10.05;;
64875;SDS011;51369;49.862;9.908;2023-02-28T16:38:23;15.40;;;8.50;;
64875;SDS011;51369;49.862;9.908;2023-02-28T16:40:50;15.15;;;8.18;;
64875;SDS011;51369;49.862;9.908;2023-02-28T16:43:20;17.75;;;10.38;;
64875;SDS011;51369;49.862;9.908;2023-02-28T16:45:49;20.35;;;11.20;;
64875;SDS011;51369;49.862;9.908;2023-02-28T16:48:20;16.77;;;10.23;;
64875;SDS011;51369;49.862;9.908;2023-02-28T16:50:46;16.08;;;8.73;;
64875;SDS011;51369;49.862;9.908;2023-02-28T16:53:11;18.75;;;8.00;;
64875;SDS011;51369;49.862;9.908;2023-02-28T16:55:36;16.10;;;9.00;;
64875;SDS011;51369;49.862;9.908;2023-02-28T16:58:02;19.83;;;9.98;;
64875;SDS011;51369;49.862;9.908;2023-02-28T17:00:29;21.23;;;10.68;;
64875;SDS011;51369;49.862;9.908;2023-02-28T17:02:56;21.73;;;11.63;;
64875;SDS011;51369;49.862;9.908;2023-02-28T17:05:22;23.05;;;11.57;;
64875;SDS011;51369;49.862;9.908;2023-02-28T17:07:48;32.38;;;13.82;;
64875;SDS011;51369;49.862;9.908;2023-02-28T17:10:22;34.47;;;14.07;;
64875;SDS011;51369;49.862;9.908;2023-02-28T17:12:50;22.50;;;10.88;;
64875;SDS011;51369;49.862;9.908;2023-02-28T17:15:17;23.85;;;11.88;;
64875;SDS011;51369;49.862;9.908;2023-02-28T17:17:43;21.08;;;11.95;;
64875;SDS011;51369;49.862;9.908;2023-02-28T17:20:14;20.08;;;11.43;;
64875;SDS011;51369;49.862;9.908;2023-02-28T17:22:47;19.27;;;10.95;;
64875;SDS011;51369;49.862;9.908;2023-02-28T17:25:13;21.90;;;12.40;;
64875;SDS011;51369;49.862;9.908;2023-02-28T17:27:39;29.52;;;12.25;;
64875;SDS011;51369;49.862;9.908;2023-02-28T17:30:18;30.50;;;14.10;;
64875;SDS011;51369;49.862;9.908;2023-02-28T17:32:45;20.17;;;13.25;;
64875;SDS011;51369;49.862;9.908;2023-02-28T17:35:11;26.42;;;13.13;;
64875;SDS011;51369;49.862;9.908;2023-02-28T17:37:37;19.40;;;11.43;;
64875;SDS011;51369;49.862;9.908;2023-02-28T17:40:03;18.48;;;11.30;;